Time;durP1;ratioP1;P1;durP2;ratioP2;P2;SDS_P1;SDS_P2;PMS_P1;PMS_P2;Temp;Humidity;BMP_temperature;BMP_pressure;BME280_temperature;BME280_humidity;BME280_pressure;Samples;Min_cycle;Max_cycle;Signal;HPM_P1;HPM_P2
2022/03/24 00:00:53;;;;;;;9.30;8.70;;;;;;;16.10;63.70;100428.75;5025603;28;20136;-67
2022/03/24 00:03:20;;;;;;;8.77;8.18;;;;;;;16.09;64.14;100429.91;5026019;28;20049;-67
2022/03/24 00:05:52;;;;;;;8.70;7.82;;;;;;;16.19;64.03;100440.94;5024733;28;20053;-67
2022/03/24 00:08:19;;;;;;;9.25;8.55;;;;;;;16.02;63.83;100405.03;5029070;28;20132;-67
2022/03/24 00:10:46;;;;;;;8.27;7.47;;;;;;;16.00;63.80;100403.66;5022694;28;20049;-68
2022/03/24 00:13:14;;;;;;;9.07;8.43;;;;;;;16.08;64.12;100417.81;5028837;28;20084;-68
2022/03/24 00:15:41;;;;;;;9.32;8.48;;;;;;;16.14;64.07;100423.31;5021574;28;20053;-68
2022/03/24 00:18:08;;;;;;;8.80;8.20;;;;;;;16.11;64.20;100419.19;5029876;28;20072;-68
2022/03/24 00:20:35;;;;;;;7.45;6.95;;;;;;;16.10;63.89;100417.50;5022924;28;20049;-68
2022/03/24 00:23:02;;;;;;;8.90;8.23;;;;;;;15.76;63.81;100365.44;5030136;28;20049;-67
2022/03/24 00:25:29;;;;;;;7.97;7.40;;;;;;;15.69;63.71;100362.22;5021149;28;20054;-67
2022/03/24 00:27:56;;;;;;;8.70;8.10;;;;;;;15.92;64.02;100398.81;5024825;28;20081;-66
2022/03/24 00:30:23;;;;;;;8.43;7.82;;;;;;;16.05;64.01;100414.81;5024465;28;20149;-68
2022/03/24 00:32:50;;;;;;;8.32;7.78;;;;;;;16.06;63.79;100422.09;5031221;28;20052;-68
2022/03/24 00:35:16;;;;;;;9.10;8.50;;;;;;;16.01;64.27;100408.16;5025660;28;20484;-66
2022/03/24 00:37:44;;;;;;;8.50;7.95;;;;;;;15.94;64.50;100413.41;5024429;28;20080;-66
2022/03/24 00:40:16;;;;;;;8.32;7.50;;;;;;;15.84;63.96;100404.06;5023344;28;20083;-67
2022/03/24 00:42:44;;;;;;;10.48;9.77;;;;;;;15.82;64.60;100405.53;5027248;28;20104;-67
2022/03/24 00:45:12;;;;;;;8.40;7.80;;;;;;;15.75;64.27;100417.22;5022241;28;20077;-68
2022/03/24 00:47:41;;;;;;;8.90;8.30;;;;;;;15.60;64.66;100386.63;5025758;28;20049;-68
2022/03/24 00:50:09;;;;;;;8.20;7.60;;;;;;;15.62;64.13;100402.06;5028905;28;20081;-67
2022/03/24 00:52:41;;;;;;;9.80;9.10;;;;;;;15.69;64.08;100412.91;5030283;28;20080;-68
2022/03/24 00:55:13;;;;;;;7.90;7.40;;;;;;;15.75;64.67;100410.78;5028032;28;20103;-66
2022/03/24 00:57:45;;;;;;;7.90;7.32;;;;;;;15.55;64.70;100373.47;5030180;28;20081;-68
2022/03/24 01:00:30;;;;;;;8.45;7.90;;;;;;;15.74;64.41;100412.75;5026139;28;20086;-67
2022/03/24 01:02:58;;;;;;;8.82;8.23;;;;;;;15.66;64.99;100388.19;5023314;28;20053;-69
2022/03/24 01:05:28;;;;;;;8.60;8.00;;;;;;;15.62;64.27;100399.22;5022428;28;20057;-68
2022/03/24 01:07:56;;;;;;;8.23;7.72;;;;;;;15.56;63.80;100394.03;5024021;28;20154;-68
2022/03/24 01:10:24;;;;;;;8.05;7.32;;;;;;;15.63;63.74;100402.88;5020705;28;20138;-68
2022/03/24 01:12:51;;;;;;;8.70;8.10;;;;;;;15.70;63.95;100403.31;5026030;28;20140;-68
2022/03/24 01:15:23;;;;;;;8.95;8.25;;;;;;;15.65;64.24;100397.75;5018197;28;20568;-66
2022/03/24 01:17:50;;;;;;;8.70;8.10;;;;;;;15.63;64.57;100414.13;5019191;28;20096;-66
2022/03/24 01:20:17;;;;;;;9.10;8.40;;;;;;;15.67;64.63;100412.38;5022556;28;20091;-68
2022/03/24 01:22:45;;;;;;;8.10;7.63;;;;;;;15.48;64.32;100386.34;5025619;28;20489;-67
2022/03/24 01:25:12;;;;;;;8.18;7.63;;;;;;;15.64;64.30;100407.34;5029631;28;20125;-67
2022/03/24 01:27:39;;;;;;;7.93;7.32;;;;;;;15.64;64.79;100399.72;5016320;28;20133;-67
2022/03/24 01:30:10;;;;;;;8.35;7.65;;;;;;;15.63;64.59;100402.88;5019039;28;20505;-67
2022/03/24 01:32:40;;;;;;;8.60;7.90;;;;;;;15.50;64.24;100382.06;5029229;28;20050;-67
2022/03/24 01:35:08;;;;;;;8.82;8.00;;;;;;;15.53;64.83;100380.59;5015854;28;20467;-68
2022/03/24 01:37:36;;;;;;;9.32;8.52;;;;;;;15.59;64.77;100397.06;5026459;28;20088;-68
2022/03/24 01:40:05;;;;;;;8.93;8.23;;;;;;;15.61;64.57;100391.09;5020827;28;20085;-67
2022/03/24 01:42:36;;;;;;;8.43;7.93;;;;;;;15.59;64.88;100396.22;5029078;28;20129;-66
2022/03/24 01:45:05;;;;;;;9.80;9.10;;;;;;;15.58;64.62;100392.56;5027707;28;20045;-67
2022/03/24 01:47:34;;;;;;;8.95;8.38;;;;;;;15.47;64.93;100393.13;5021441;28;20146;-67
2022/03/24 01:50:03;;;;;;;8.17;7.43;;;;;;;15.55;64.95;100396.00;5029087;28;20136;-67
2022/03/24 01:52:30;;;;;;;7.32;6.93;;;;;;;15.46;64.84;100375.41;5026190;28;20377;-67
2022/03/24 01:55:00;;;;;;;7.82;7.22;;;;;;;15.55;64.51;100384.75;5028940;28;20124;-67
2022/03/24 01:57:29;;;;;;;9.57;8.85;;;;;;;15.47;64.65;100371.44;5028675;28;20053;-67
2022/03/24 01:59:58;;;;;;;8.63;8.02;;;;;;;15.58;64.80;100400.16;5016679;28;20074;-67
2022/03/24 02:02:25;;;;;;;7.63;7.22;;;;;;;15.59;64.69;100396.22;5029854;28;20045;-66
2022/03/24 02:04:52;;;;;;;8.98;8.23;;;;;;;15.36;64.56;100365.22;5026492;28;20055;-66
2022/03/24 02:07:20;;;;;;;8.23;7.60;;;;;;;15.55;64.08;100398.00;5021896;28;20148;-67
2022/03/24 02:09:47;;;;;;;10.20;9.55;;;;;;;15.26;64.05;100354.22;5028818;28;20132;-66
2022/03/24 02:12:14;;;;;;;8.32;7.72;;;;;;;15.26;64.41;100359.84;5031199;28;20116;-66
2022/03/24 02:14:42;;;;;;;9.07;8.07;;;;;;;15.30;64.51;100372.13;5025009;28;20107;-66
2022/03/24 02:17:10;;;;;;;8.50;8.00;;;;;;;15.37;64.73;100385.75;5030449;28;20472;-65
2022/03/24 02:19:37;;;;;;;8.85;8.27;;;;;;;15.39;64.52;100391.91;5030265;28;20219;-67
2022/03/24 02:22:16;;;;;;;8.27;7.63;;;;;;;15.38;65.01;100382.63;5027607;28;20041;-66
2022/03/24 02:24:43;;;;;;;8.65;8.00;;;;;;;15.38;64.14;100385.44;5020342;28;20571;-65
2022/03/24 02:27:11;;;;;;;8.27;7.68;;;;;;;15.22;64.57;100364.44;5026941;28;20207;-66
2022/03/24 02:29:38;;;;;;;8.25;7.75;;;;;;;15.05;64.48;100338.97;5024688;28;20124;-66
2022/03/24 02:32:11;;;;;;;8.80;8.20;;;;;;;15.07;64.80;100350.72;5030102;28;20084;-67
2022/03/24 02:34:40;;;;;;;8.80;8.18;;;;;;;15.13;65.10;100369.13;5026010;28;20065;-67
2022/03/24 02:37:09;;;;;;;9.88;9.18;;;;;;;15.18;64.75;100380.28;5025015;28;20100;-68
2022/03/24 02:39:38;;;;;;;8.60;8.00;;;;;;;15.19;64.77;100375.50;5032777;28;20096;-68
2022/03/24 02:42:07;;;;;;;9.20;8.55;;;;;;;15.17;65.42;100376.63;5024989;28;20037;-66
2022/03/24 02:44:34;;;;;;;9.10;8.40;;;;;;;15.05;65.23;100351.03;5021799;28;20136;-67
2022/03/24 02:47:03;;;;;;;8.75;8.15;;;;;;;15.01;65.19;100354.78;5022798;28;20076;-66
2022/03/24 02:49:31;;;;;;;8.10;7.70;;;;;;;14.92;65.33;100349.91;5028958;28;20569;-67
2022/03/24 02:51:59;;;;;;;8.65;7.82;;;;;;;14.98;65.29;100358.25;5026072;28;20068;-66
2022/03/24 02:54:28;;;;;;;11.80;10.93;;;;;;;14.95;65.59;100365.31;5018226;28;20085;-66
2022/03/24 02:56:56;;;;;;;9.27;8.70;;;;;;;14.80;65.54;100351.56;5032875;28;20124;-65
2022/03/24 02:59:23;;;;;;;8.60;8.10;;;;;;;14.84;65.26;100356.28;5033860;28;20103;-65
2022/03/24 03:02:00;;;;;;;8.02;7.60;;;;;;;14.83;65.11;100351.78;5030710;28;20077;-66
2022/03/24 03:04:34;;;;;;;8.27;7.68;;;;;;;14.60;65.32;100330.38;5026657;28;20050;-67
2022/03/24 03:07:03;;;;;;;8.55;7.85;;;;;;;14.76;65.51;100342.13;5029260;28;20156;-67
2022/03/24 03:09:32;;;;;;;8.75;8.15;;;;;;;14.62;65.37;100342.13;5023235;28;20561;-67
2022/03/24 03:11:59;;;;;;;8.67;8.07;;;;;;;14.29;65.30;100276.75;5025548;28;20081;-66
2022/03/24 03:14:29;;;;;;;9.05;8.27;;;;;;;14.57;65.51;100328.19;5025592;28;20045;-67
2022/03/24 03:17:00;;;;;;;9.07;8.48;;;;;;;14.44;65.89;100321.38;5028786;28;20057;-67
2022/03/24 03:19:29;;;;;;;9.00;8.50;;;;;;;14.56;65.35;100340.56;5026766;28;20045;-66
2022/03/24 03:21:56;;;;;;;8.73;8.00;;;;;;;14.41;65.64;100322.00;5023660;28;20045;-66
2022/03/24 03:24:23;;;;;;;8.88;8.20;;;;;;;14.24;65.95;100294.53;5025709;28;20062;-66
2022/03/24 03:26:52;;;;;;;8.93;8.40;;;;;;;14.49;65.92;100334.50;5031993;28;20045;-65
2022/03/24 03:29:22;;;;;;;9.30;8.10;;;;;;;14.41;66.03;100328.47;5025197;28;20144;-65
2022/03/24 03:31:54;;;;;;;8.40;7.80;;;;;;;14.49;65.79;100329.69;5026355;28;20050;-66
2022/03/24 03:34:24;;;;;;;8.40;7.80;;;;;;;14.36;65.88;100317.34;5025619;28;20096;-67
2022/03/24 03:36:54;;;;;;;9.00;8.30;;;;;;;14.29;65.83;100314.13;5034431;28;20053;-66
2022/03/24 03:39:25;;;;;;;9.30;8.68;;;;;;;13.83;65.83;100261.63;5023379;28;20064;-65
2022/03/24 03:41:54;;;;;;;9.17;8.53;;;;;;;14.37;66.07;100349.91;5030858;28;20463;-66
2022/03/24 03:44:21;;;;;;;9.00;8.30;;;;;;;14.18;65.72;100302.22;5029412;28;20049;-66
2022/03/24 03:46:48;;;;;;;8.67;8.13;;;;;;;14.35;65.84;100335.31;5025107;28;20579;-66
2022/03/24 03:49:16;;;;;;;9.38;8.77;;;;;;;14.36;65.52;100342.63;5022080;28;20501;-66
2022/03/24 03:51:43;;;;;;;8.10;7.50;;;;;;;14.22;65.83;100316.47;5027563;28;20545;-67
2022/03/24 03:54:10;;;;;;;8.57;7.93;;;;;;;14.07;65.73;100299.94;5028957;28;20471;-67
2022/03/24 03:56:37;;;;;;;7.60;7.20;;;;;;;14.22;65.79;100319.28;5024336;28;20446;-67
2022/03/24 03:59:05;;;;;;;8.30;7.60;;;;;;;14.27;65.61;100316.38;5018612;28;20093;-67
2022/03/24 04:01:32;;;;;;;8.50;7.90;;;;;;;14.23;65.84;100321.78;5023342;28;20136;-66
2022/03/24 04:04:00;;;;;;;8.53;7.77;;;;;;;14.16;66.07;100309.31;5030814;28;20140;-66
2022/03/24 04:06:27;;;;;;;7.90;7.50;;;;;;;14.17;65.95;100313.78;5038706;28;20050;-66
2022/03/24 04:08:54;;;;;;;8.48;7.88;;;;;;;14.09;66.40;100303.28;5031132;28;20045;-65
2022/03/24 04:11:21;;;;;;;9.17;8.47;;;;;;;14.05;66.08;100299.41;5023640;28;20084;-67
2022/03/24 04:13:48;;;;;;;8.93;8.23;;;;;;;14.04;65.88;100298.56;5023847;28;20473;-67
2022/03/24 04:16:15;;;;;;;9.27;8.67;;;;;;;14.10;65.93;100317.00;5031931;28;20068;-67
2022/03/24 04:18:43;;;;;;;9.37;8.67;;;;;;;13.92;65.89;100282.25;5029162;28;20497;-66
2022/03/24 04:21:11;;;;;;;8.97;8.37;;;;;;;13.89;66.08;100298.88;5028745;28;20472;-67
2022/03/24 04:23:40;;;;;;;8.70;8.20;;;;;;;14.05;65.83;100307.81;5025484;28;20066;-67
2022/03/24 04:26:10;;;;;;;8.43;7.93;;;;;;;13.95;65.82;100284.44;5034025;28;20136;-66
2022/03/24 04:28:39;;;;;;;9.03;8.40;;;;;;;14.15;65.99;100324.47;5030504;28;20057;-66
2022/03/24 04:31:06;;;;;;;9.00;8.43;;;;;;;14.14;65.96;100315.22;5027014;28;20144;-65
2022/03/24 04:33:33;;;;;;;8.70;8.10;;;;;;;13.91;65.89;100291.81;5027574;28;20095;-65
2022/03/24 04:36:00;;;;;;;9.00;8.40;;;;;;;14.02;65.74;100319.66;5028822;28;20046;-65
2022/03/24 04:38:27;;;;;;;8.70;8.20;;;;;;;13.89;66.03;100310.94;5014314;28;20148;-65
2022/03/24 04:40:56;;;;;;;9.00;8.40;;;;;;;13.86;65.13;100303.13;5014650;28;20062;-66
2022/03/24 04:43:24;;;;;;;7.82;7.22;;;;;;;13.50;64.88;100270.09;5022568;28;20132;-66
2022/03/24 04:45:51;;;;;;;8.60;7.93;;;;;;;13.70;64.37;100315.75;5021115;28;20480;-67
2022/03/24 04:48:18;;;;;;;9.00;8.40;;;;;;;13.71;63.94;100306.22;5026428;28;20081;-67
2022/03/24 04:50:45;;;;;;;9.52;8.82;;;;;;;13.59;64.19;100275.00;5024866;28;20140;-67
2022/03/24 04:53:14;;;;;;;9.47;8.57;;;;;;;13.51;64.17;100262.53;5026165;28;20077;-66
2022/03/24 04:55:45;;;;;;;8.40;7.90;;;;;;;13.88;64.15;100342.97;5022102;28;20731;-66
2022/03/24 04:58:13;;;;;;;8.40;7.90;;;;;;;13.84;64.49;100315.78;5023599;28;20849;-66
2022/03/24 05:00:41;;;;;;;9.87;9.27;;;;;;;13.98;64.49;100342.78;5021670;28;20140;-66
2022/03/24 05:03:08;;;;;;;9.00;8.40;;;;;;;13.83;64.50;100334.63;5029992;28;20056;-67
2022/03/24 05:05:35;;;;;;;8.87;8.37;;;;;;;13.95;64.81;100349.00;5019548;28;20144;-69
2022/03/24 05:08:03;;;;;;;9.00;8.40;;;;;;;13.93;64.78;100351.28;5020493;28;20555;-69
2022/03/24 05:10:30;;;;;;;8.63;8.07;;;;;;;13.70;65.12;100296.13;5026075;28;20049;-68
2022/03/24 05:12:57;;;;;;;8.53;8.03;;;;;;;13.96;65.05;100328.19;5019114;28;20058;-67
2022/03/24 05:15:24;;;;;;;8.50;8.00;;;;;;;14.14;65.25;100351.72;5025432;28;20199;-67
2022/03/24 05:17:51;;;;;;;9.47;8.73;;;;;;;14.19;65.16;100354.47;5021577;28;20077;-67
2022/03/24 05:20:19;;;;;;;9.40;8.53;;;;;;;14.20;65.12;100360.91;5017256;28;20085;-68
2022/03/24 05:22:46;;;;;;;9.63;8.90;;;;;;;14.10;65.34;100347.06;5021964;28;20078;-68
2022/03/24 05:25:14;;;;;;;9.13;8.60;;;;;;;14.20;65.02;100358.94;5028452;28;20078;-67
2022/03/24 05:27:41;;;;;;;8.67;8.07;;;;;;;14.19;65.11;100354.47;5017706;28;20460;-68
2022/03/24 05:30:08;;;;;;;9.60;8.67;;;;;;;14.24;65.20;100361.94;5019233;28;20171;-68
2022/03/24 05:32:37;;;;;;;9.20;8.57;;;;;;;14.29;65.01;100364.69;5020140;28;20183;-68
2022/03/24 05:35:05;;;;;;;9.30;8.60;;;;;;;14.07;65.12;100330.81;5026370;28;20487;-68
2022/03/24 05:37:32;;;;;;;9.70;8.90;;;;;;;14.19;65.15;100359.25;5019010;28;20073;-68
2022/03/24 05:39:59;;;;;;;9.80;9.10;;;;;;;14.17;65.38;100378.38;5032597;28;20077;-68
2022/03/24 05:42:27;;;;;;;9.10;8.50;;;;;;;14.03;65.40;100367.13;5027161;28;20474;-68
2022/03/24 05:44:54;;;;;;;10.53;9.57;;;;;;;14.03;65.96;100375.53;5036137;28;20096;-67
2022/03/24 05:47:21;;;;;;;9.23;8.63;;;;;;;13.83;66.07;100371.09;5028325;28;20136;-66
2022/03/24 05:49:48;;;;;;;9.10;8.50;;;;;;;13.77;66.07;100347.06;5030148;28;20092;-68
2022/03/24 05:52:14;;;;;;;9.20;8.50;;;;;;;13.95;66.05;100377.09;5041374;28;20072;-68
2022/03/24 05:54:41;;;;;;;9.07;8.47;;;;;;;13.89;66.05;100372.69;5038038;28;20469;-68
2022/03/24 05:57:10;;;;;;;9.70;8.90;;;;;;;13.84;66.45;100364.34;5027012;28;20053;-68
2022/03/24 05:59:38;;;;;;;8.67;8.10;;;;;;;13.89;66.21;100375.50;5035885;28;20133;-68
2022/03/24 06:02:06;;;;;;;9.50;8.80;;;;;;;13.93;66.33;100376.53;5025612;28;20050;-67
2022/03/24 06:04:34;;;;;;;9.13;8.53;;;;;;;13.90;66.17;100377.16;5029307;28;20049;-67
2022/03/24 06:07:01;;;;;;;8.80;8.10;;;;;;;13.88;66.19;100376.66;5033781;28;20132;-68
2022/03/24 06:09:28;;;;;;;8.80;8.17;;;;;;;13.88;66.04;100379.44;5029782;28;20078;-66
2022/03/24 06:11:56;;;;;;;8.80;8.20;;;;;;;13.89;66.21;100366.25;5030776;28;20048;-68
2022/03/24 06:14:25;;;;;;;9.77;8.83;;;;;;;13.78;66.33;100367.53;5023281;28;20049;-68
2022/03/24 06:16:53;;;;;;;9.13;8.30;;;;;;;13.78;66.33;100347.91;5027822;28;20107;-67
2022/03/24 06:19:20;;;;;;;9.20;8.60;;;;;;;13.94;66.41;100378.19;5025373;28;20077;-68
2022/03/24 06:21:48;;;;;;;8.93;8.13;;;;;;;13.94;66.21;100381.00;5028435;28;20140;-67
2022/03/24 06:24:15;;;;;;;8.77;8.07;;;;;;;13.82;65.88;100337.75;5025444;28;20107;-68
2022/03/24 06:26:42;;;;;;;9.33;8.70;;;;;;;13.60;65.65;100287.88;5029239;28;20124;-67
2022/03/24 06:29:09;;;;;;;10.13;9.33;;;;;;;13.94;65.42;100344.50;5030740;28;20089;-67
2022/03/24 06:31:36;;;;;;;10.17;9.23;;;;;;;13.97;65.43;100354.31;5025470;28;20196;-67
2022/03/24 06:34:03;;;;;;;10.53;9.57;;;;;;;14.09;65.41;100377.13;5022747;28;20053;-66
2022/03/24 06:36:35;;;;;;;9.93;9.17;;;;;;;13.96;65.82;100367.50;5028725;28;20085;-69
2022/03/24 06:39:02;;;;;;;11.17;8.67;;;;;;;14.06;65.81;100385.31;5026033;28;20056;-67
2022/03/24 06:41:29;;;;;;;9.70;9.00;;;;;;;13.93;65.67;100373.72;5029410;28;20124;-68
2022/03/24 06:43:57;;;;;;;9.77;8.97;;;;;;;14.02;65.76;100385.09;5024584;28;20128;-67
2022/03/24 06:46:25;;;;;;;10.60;9.83;;;;;;;13.99;65.95;100382.91;5030286;28;20088;-67
2022/03/24 06:48:52;;;;;;;10.33;9.57;;;;;;;13.89;66.20;100381.09;5025106;28;20064;-66
2022/03/24 06:51:19;;;;;;;9.13;8.53;;;;;;;13.88;66.58;100385.06;5040612;28;20167;-67
2022/03/24 06:53:47;;;;;;;9.77;8.97;;;;;;;13.85;66.32;100366.03;5024712;28;20133;-66
2022/03/24 06:56:14;;;;;;;8.67;7.97;;;;;;;13.97;66.27;100379.56;5023092;28;20750;-67
2022/03/24 06:58:46;;;;;;;9.63;8.93;;;;;;;13.48;66.67;100311.66;5024236;28;20516;-66
2022/03/24 07:01:13;;;;;;;10.13;9.17;;;;;;;13.96;66.53;100373.13;5025628;28;20045;-67
2022/03/24 07:03:40;;;;;;;9.63;8.90;;;;;;;14.13;66.39;100377.34;5025316;28;20053;-67
2022/03/24 07:06:07;;;;;;;11.40;10.33;;;;;;;14.24;65.94;100373.19;5026670;28;20057;-67
2022/03/24 07:08:35;;;;;;;9.57;8.87;;;;;;;14.33;65.78;100381.75;5030359;28;20055;-67
2022/03/24 07:11:03;;;;;;;14.98;11.85;;;;;;;14.51;65.75;100399.69;5030405;28;20080;-68
2022/03/24 07:13:30;;;;;;;12.13;9.77;;;;;;;14.49;65.67;100414.00;5018963;28;20124;-67
2022/03/24 07:15:57;;;;;;;9.77;9.07;;;;;;;14.52;65.86;100401.34;5024848;28;20132;-68
2022/03/24 07:18:25;;;;;;;10.40;9.70;;;;;;;14.55;65.74;100384.69;5024844;28;20092;-68
2022/03/24 07:20:52;;;;;;;10.87;10.07;;;;;;;14.86;65.52;100407.38;5030544;28;20407;-68
2022/03/24 07:23:19;;;;;;;11.00;9.97;;;;;;;15.15;65.11;100397.78;5022797;28;20439;-68
2022/03/24 07:25:45;;;;;;;10.60;9.75;;;;;;;15.31;65.08;100370.97;5021266;28;20105;-68
2022/03/24 07:28:14;;;;;;;11.40;10.40;;;;;;;15.36;64.55;100373.66;5026944;28;20095;-68
2022/03/24 07:30:42;;;;;;;10.90;10.20;;;;;;;15.36;64.62;100361.59;5028040;28;20128;-68
2022/03/24 07:33:11;;;;;;;10.88;9.80;;;;;;;15.51;64.46;100364.03;5025161;28;20415;-68
2022/03/24 07:35:38;;;;;;;10.70;9.90;;;;;;;15.77;64.33;100388.78;5028250;28;20492;-66
2022/03/24 07:38:04;;;;;;;13.00;12.10;;;;;;;15.77;64.22;100378.34;5023336;28;20137;-67
2022/03/24 07:40:31;;;;;;;13.43;12.45;;;;;;;15.64;64.37;100346.25;5024201;28;20080;-67
2022/03/24 07:42:58;;;;;;;11.23;10.13;;;;;;;15.69;64.28;100361.38;5022616;28;20081;-71
2022/03/24 07:45:26;;;;;;;19.02;16.98;;;;;;;15.76;64.94;100387.94;5023666;28;20137;-68
2022/03/24 07:48:06;;;;;;;10.60;9.75;;;;;;;16.01;65.32;100389.28;5022333;28;20577;-68
2022/03/24 07:50:34;;;;;;;13.68;12.57;;;;;;;16.06;64.47;100363.78;5019835;28;20141;-68
2022/03/24 07:53:30;;;;;;;16.65;14.10;;;;;;;16.12;65.86;100361.66;5021979;28;20072;-68
2022/03/24 07:55:58;;;;;;;15.52;14.15;;;;;;;16.24;64.72;100373.19;5023556;28;20080;-69
2022/03/24 07:58:25;;;;;;;12.82;11.63;;;;;;;16.21;64.45;100373.84;5025268;28;20057;-71
2022/03/24 08:00:53;;;;;;;12.02;11.13;;;;;;;16.54;63.62;100390.41;5025143;28;20109;-71
2022/03/24 08:03:21;;;;;;;11.93;11.20;;;;;;;16.61;63.79;100351.28;5028076;28;20532;-70
2022/03/24 08:05:48;;;;;;;10.23;9.45;;;;;;;17.39;63.04;100387.34;5026156;28;20045;-71
2022/03/24 08:08:16;;;;;;;9.60;8.77;;;;;;;17.96;62.19;100392.88;5023543;28;20103;-71
2022/03/24 08:10:46;;;;;;;9.77;9.07;;;;;;;18.37;61.17;100351.88;5028369;28;20072;-71
2022/03/24 08:13:15;;;;;;;10.98;10.18;;;;;;;18.93;60.65;100359.13;5032207;28;20111;-71
2022/03/24 08:15:43;;;;;;;10.10;9.25;;;;;;;19.55;60.26;100363.19;5031849;28;20140;-72
2022/03/24 08:18:11;;;;;;;9.80;9.10;;;;;;;19.93;59.77;100367.91;5032462;28;20144;-71
2022/03/24 08:20:38;;;;;;;9.75;9.10;;;;;;;20.06;59.84;100378.06;5018631;28;20464;-71
2022/03/24 08:23:08;;;;;;;9.52;8.88;;;;;;;19.83;59.92;100363.50;5023984;28;20393;-72
2022/03/24 08:25:40;;;;;;;10.48;9.73;;;;;;;20.03;60.32;100395.81;5025995;28;20053;-70
2022/03/24 08:28:08;;;;;;;11.05;10.35;;;;;;;19.99;59.64;100396.84;5023524;28;20043;-71
2022/03/24 08:30:35;;;;;;;9.45;8.50;;;;;;;19.84;60.13;100390.63;5029605;28;20050;-72
2022/03/24 08:33:02;;;;;;;9.65;8.93;;;;;;;20.19;59.30;100392.31;5031185;28;20115;-72
2022/03/24 08:35:28;;;;;;;9.98;9.27;;;;;;;20.66;58.00;100377.78;5021711;28;20139;-71
2022/03/24 08:37:55;;;;;;;10.07;9.48;;;;;;;21.10;57.50;100403.59;5022021;28;20091;-70
2022/03/24 08:40:23;;;;;;;10.05;9.35;;;;;;;21.18;56.95;100409.13;5020234;28;21127;-69
2022/03/24 08:42:50;;;;;;;10.20;9.35;;;;;;;21.18;57.36;100389.25;5026221;28;20045;-70
2022/03/24 08:45:17;;;;;;;11.05;10.18;;;;;;;21.72;57.04;100420.22;5027492;28;20548;-70
2022/03/24 08:47:44;;;;;;;9.88;9.18;;;;;;;22.04;56.38;100410.97;5026725;28;20133;-70
2022/03/24 08:50:12;;;;;;;10.32;9.73;;;;;;;22.52;56.24;100424.16;5019876;28;20140;-71
2022/03/24 08:52:43;;;;;;;9.95;9.35;;;;;;;22.96;55.65;100420.47;5023093;28;20128;-70
2022/03/24 08:55:13;;;;;;;10.40;9.70;;;;;;;23.24;54.89;100395.53;5019316;28;20092;-70
2022/03/24 08:57:41;;;;;;;9.85;9.25;;;;;;;23.06;55.33;100408.53;5023782;28;20140;-70
2022/03/24 09:00:15;;;;;;;12.65;11.85;;;;;;;22.53;56.59;100423.00;5027281;28;20143;-70
2022/03/24 09:02:48;;;;;;;11.60;10.73;;;;;;;22.18;56.00;100420.78;5023961;28;20144;-70
2022/03/24 09:05:18;;;;;;;10.88;10.18;;;;;;;21.88;54.28;100427.97;5024904;28;20076;-71
2022/03/24 09:07:46;;;;;;;11.05;10.15;;;;;;;21.74;53.01;100425.53;5021238;28;20132;-70
2022/03/24 09:10:15;;;;;;;11.07;10.18;;;;;;;21.99;53.65;100401.53;5030475;28;20061;-70
2022/03/24 09:12:44;;;;;;;12.98;9.85;;;;;;;22.31;53.52;100420.72;5028195;28;20583;-70
2022/03/24 09:15:14;;;;;;;10.05;9.25;;;;;;;21.64;52.22;100389.06;5029575;28;20132;-71
2022/03/24 09:17:42;;;;;;;10.70;9.90;;;;;;;21.10;52.32;100392.25;5028762;28;20116;-71
2022/03/24 09:20:12;;;;;;;10.70;9.90;;;;;;;20.99;54.29;100418.28;5024963;28;20556;-71
2022/03/24 09:22:44;;;;;;;14.00;13.00;;;;;;;20.67;55.11;100413.50;5024295;28;20132;-71
2022/03/24 09:25:14;;;;;;;12.18;10.18;;;;;;;20.38;55.34;100401.13;5022775;28;20061;-71
2022/03/24 09:27:42;;;;;;;10.25;9.55;;;;;;;20.27;55.97;100411.22;5026577;28;20493;-71
2022/03/24 09:30:14;;;;;;;10.07;9.25;;;;;;;20.06;56.25;100414.94;5027734;28;20489;-70
2022/03/24 09:32:42;;;;;;;11.13;10.30;;;;;;;19.91;57.08;100412.75;5021004;28;20142;-71
2022/03/24 09:35:10;;;;;;;10.82;9.82;;;;;;;19.84;57.29;100423.81;5027486;28;20586;-71
2022/03/24 09:37:36;;;;;;;11.65;10.60;;;;;;;19.61;56.93;100423.28;5025035;28;20087;-70
2022/03/24 09:40:06;;;;;;;9.80;9.15;;;;;;;19.51;57.66;100427.34;5026349;28;20197;-71
2022/03/24 09:42:36;;;;;;;9.77;9.02;;;;;;;18.81;53.81;100375.19;5028719;28;20142;-71
2022/03/24 09:45:05;;;;;;;9.77;9.00;;;;;;;19.09;56.46;100434.97;5025680;28;20176;-70
2022/03/24 09:47:34;;;;;;;10.87;9.80;;;;;;;18.97;55.75;100430.00;5025152;28;20446;-70
2022/03/24 09:50:02;;;;;;;10.10;9.45;;;;;;;19.00;56.54;100426.50;5024340;28;20352;-70
2022/03/24 09:52:29;;;;;;;10.88;10.07;;;;;;;19.13;56.82;100431.09;5027142;28;20443;-71
2022/03/24 09:54:56;;;;;;;10.68;9.77;;;;;;;19.16;54.18;100436.06;5025834;28;20121;-70
2022/03/24 09:57:23;;;;;;;11.70;10.90;;;;;;;19.13;55.75;100419.78;5024572;28;20168;-70
2022/03/24 09:59:50;;;;;;;10.57;9.77;;;;;;;19.30;53.40;100446.31;5025231;28;20128;-71
2022/03/24 10:02:17;;;;;;;9.98;9.27;;;;;;;19.53;53.60;100444.03;5028127;28;20076;-71
2022/03/24 10:04:49;;;;;;;10.43;9.55;;;;;;;19.90;54.80;100436.59;5023130;28;20049;-70
2022/03/24 10:07:19;;;;;;;11.02;10.02;;;;;;;20.21;55.19;100435.31;5023975;28;20144;-70
2022/03/24 10:09:47;;;;;;;;;;;;;;;20.65;57.19;100435.69;5023410;28;20179;-71
2022/03/24 10:12:28;;;;;;;9.98;9.20;;;;;;;21.18;56.25;100443.22;5023627;28;19960;-71
2022/03/24 10:15:09;;;;;;;13.68;12.40;;;;;;;21.43;55.03;100438.38;5023758;28;20187;-70
2022/03/24 10:17:38;;;;;;;11.15;10.45;;;;;;;22.21;55.15;100442.00;5026224;28;20151;-69
2022/03/24 10:20:15;;;;;;;9.93;8.98;;;;;;;22.69;52.64;100426.66;5024666;28;20147;-71
2022/03/24 10:22:53;;;;;;;11.88;10.98;;;;;;;23.34;52.32;100426.31;5040465;28;20105;-71
2022/03/24 10:25:28;;;;;;;9.75;9.02;;;;;;;23.71;49.36;100434.53;5029037;28;20046;-71
2022/03/24 10:28:32;;;;;;;9.85;9.18;;;;;;;23.94;49.25;100428.94;5023480;28;20128;-71
2022/03/24 10:30:59;;;;;;;9.75;9.18;;;;;;;23.94;48.25;100417.53;5022056;28;20361;-70
2022/03/24 10:33:38;;;;;;;11.43;10.27;;;;;;;24.49;49.68;100429.69;5026248;28;20566;-70
2022/03/24 10:36:15;;;;;;;10.05;9.43;;;;;;;24.29;45.31;100408.88;5024860;28;20426;-68
2022/03/24 10:38:47;;;;;;;11.35;10.45;;;;;;;24.64;46.88;100422.19;5025518;28;20182;-69
2022/03/24 10:41:40;;;;;;;10.52;9.55;;;;;;;24.87;45.98;100424.25;5026637;28;20100;-69
2022/03/24 10:44:11;;;;;;;10.45;9.73;;;;;;;24.80;43.94;100416.38;5026112;28;20084;-69
2022/03/24 10:46:42;;;;;;;10.60;9.43;;;;;;;24.41;42.10;100407.91;5023095;28;20132;-69
2022/03/24 10:49:16;;;;;;;11.93;10.73;;;;;;;24.58;44.32;100398.00;5028415;28;20081;-70
2022/03/24 10:51:45;;;;;;;10.50;9.60;;;;;;;25.21;44.26;100396.69;5028578;28;20678;-70
2022/03/24 10:54:15;;;;;;;10.27;9.47;;;;;;;25.84;45.00;100418.06;5022708;28;20053;-69
2022/03/24 10:57:06;;;;;;;11.40;10.40;;;;;;;26.30;45.64;100406.38;5025760;28;20054;-70
2022/03/24 10:59:37;;;;;;;9.70;8.95;;;;;;;26.84;44.60;100390.63;5022592;28;20494;-70
2022/03/24 11:02:05;;;;;;;10.88;9.82;;;;;;;27.44;44.41;100401.75;5023457;28;20730;-70
2022/03/24 11:04:32;;;;;;;10.00;9.35;;;;;;;27.13;42.16;100408.91;5026860;28;20492;-70
2022/03/24 11:06:59;;;;;;;10.80;9.80;;;;;;;26.98;41.37;100410.78;5029796;28;20084;-70
2022/03/24 11:09:29;;;;;;;10.35;9.65;;;;;;;27.24;40.13;100404.06;5027609;28;20124;-71
2022/03/24 11:12:22;;;;;;;11.77;10.88;;;;;;;27.65;40.79;100401.88;5024150;28;20145;-69
2022/03/24 11:14:51;;;;;;;12.98;11.73;;;;;;;27.94;38.95;100396.34;5021573;28;20049;-70
2022/03/24 11:17:19;;;;;;;10.85;10.25;;;;;;;27.93;37.75;100374.56;5023312;28;20081;-70
2022/03/24 11:20:06;;;;;;;11.20;10.32;;;;;;;27.69;36.25;100389.59;5022703;28;20619;-70
2022/03/24 11:22:37;;;;;;;10.13;9.63;;;;;;;26.94;34.94;100389.88;5027197;28;20416;-70
2022/03/24 11:25:05;;;;;;;12.23;11.63;;;;;;;26.31;33.62;100390.84;5025811;28;20987;-71
2022/03/24 11:27:32;;;;;;;11.35;10.65;;;;;;;26.35;33.88;100363.91;5039367;28;20148;-70
2022/03/24 11:30:01;;;;;;;11.38;10.63;;;;;;;26.27;32.40;100355.63;5041197;28;20540;-70